Flight Track Log - Related Links

Times and Time Zones

All times are in EDT time to prevent confusion due to time zone crossing. See the ANA9397 flight status page for this flight to view local times or setup timezone preferences in your user account.

Time Position Orientation Groundspeed Altitude Reporting Facility
EDT Latitude Longitude Course Direction KTS MPH feet Rate Location/Type
Wed 04:49:37 PM 61.2050 -150.0200 345° North 163 188 1,600  Level FlightAware ADS-B
Wed 04:49:52 PM 61.2130 -150.0330 322° Northwest 162 186 2,500 3,333 Climbing FlightAware ADS-B
Wed 04:50:22 PM 61.2300 -150.0620 321° Northwest 168 193 4,100 3,067 Climbing FlightAware ADS-B
Wed 04:50:37 PM 61.2390 -150.0860 308° West 192 221 4,800 2,640 Climbing FlightAware ADS-B
Wed 04:50:47 PM 61.2400 -150.1060 276° West 209 241 5,200 3,150 Climbing FlightAware ADS-B
Wed 04:51:17 PM 61.2420 -150.1690 274° West 224 258 6,900 2,700 Climbing FlightAware ADS-B
Wed 04:51:47 PM 61.2440 -150.2350 274° West 264 304 7,900 2,400 Climbing FlightAware ADS-B
Wed 04:52:12 PM 61.2460 -150.3040 273° West 289 333 9,100 3,086 Climbing FlightAware ADS-B
Wed 04:52:57 PM 61.2490 -150.4330 273° West 305 351 11,500 3,318 Climbing FlightAware ADS-B
Wed 04:53:37 PM 61.2530 -150.5580 274° West 325 374 13,800 3,360 Climbing FlightAware ADS-B
Wed 04:54:12 PM 61.2550 -150.6670 272° West 336 387 15,700 3,035 Climbing FlightAware ADS-B
Wed 04:55:02 PM 61.2600 -150.8240 274° West 351 404 18,100 3,333 Climbing FlightAware ADS-B
Wed 04:55:42 PM 61.2630 -150.9570 273° West 338 389 20,700 4,094 Climbing FlightAware ADS-B
Wed 04:56:27 PM 61.2660 -151.0990 273° West 311 358 23,900 3,459 Climbing FlightAware ADS-B
Wed 04:57:07 PM 61.2690 -151.2160 273° West 309 356 25,600 2,250 Climbing FlightAware ADS-B
Wed 04:57:47 PM 61.2710 -151.3380 272° West 320 368 26,900 1,624 Climbing FlightAware ADS-B
Wed 04:58:32 PM 61.2740 -151.4830 273° West 341 392 27,900 1,412 Climbing FlightAware ADS-B
Wed 04:59:12 PM 61.2770 -151.6150 273° West 355 409 28,900 1,482 Climbing FlightAware ADS-B
Wed 04:59:57 PM 61.2790 -151.7750 272° West 370 426 30,000 1,560 Climbing FlightAware ADS-B
Wed 05:00:52 PM 61.2830 -151.9690 273° West 373 429 31,500 1,326 Climbing FlightAware ADS-B
Wed 05:01:32 PM 61.2840 -152.1130 271° West 385 443 32,100 1,059 Climbing FlightAware ADS-B
Wed 05:02:17 PM 61.2850 -152.2870 271° West 394 453 33,000 1,120 Climbing FlightAware ADS-B
Wed 05:02:47 PM 61.2850 -152.3990 270° West 400 460 33,500 1,050 Climbing FlightAware ADS-B
Wed 05:03:37 PM 61.2860 -152.5900 271° West 408 470 34,400 909 Climbing FlightAware ADS-B
Wed 05:05:32 PM 61.2860 -153.0400 270° West 429 494 36,000 876 Climbing FlightAware ADS-B
Wed 05:06:42 PM 61.2850 -153.3300 270° West 431 496 37,100 1,157 Climbing FlightAware ADS-B
Wed 05:07:52 PM 61.2840 -153.6110 270° West 415 478 38,700 1,029 Climbing FlightAware ADS-B
Wed 05:09:02 PM 61.2820 -153.8880 269° West 416 479 39,500 557 Climbing FlightAware ADS-B
Wed 05:10:12 PM 61.2800 -154.1730 269° West 421 484 40,000 214 Climbing FlightAware ADS-B
Wed 05:11:22 PM 61.2770 -154.4490 269° West 424 488 40,000  Level FlightAware ADS-B
Wed 05:12:02 PM 61.2760 -154.5880 269° West 424 488 40,000  Level FlightAware ADS-B
Wed 05:12:42 PM 61.2730 -154.7710 268° West 425 489 40,000  Level FlightAware ADS-B
Wed 05:13:27 PM 61.2710 -154.9380 269° West 425 489 40,000  Level FlightAware ADS-B
Wed 05:14:07 PM 61.2700 -155.0770 269° West 425 489 40,000  Level FlightAware ADS-B
Wed 05:14:47 PM 61.2690 -155.2160 269° West 425 489 40,000  Level FlightAware ADS-B
Wed 05:15:27 PM 61.2680 -155.3550 269° West 425 489 40,000  Level FlightAware ADS-B
Wed 05:16:17 PM 61.2660 -155.5290 269° West 425 489 40,000  Level FlightAware ADS-B
Wed 05:16:57 PM 61.2650 -155.6680 269° West 425 489 40,000  Level FlightAware ADS-B
Wed 05:17:37 PM 61.2640 -155.8070 269° West 425 489 40,000  Level FlightAware ADS-B
Wed 05:18:07 PM 61.2630 -155.9110 269° West 425 489 40,000  Level FlightAware ADS-B
Wed 05:18:47 PM 61.2620 -156.0500 269° West 425 489 40,000  Level FlightAware ADS-B
Wed 05:19:27 PM 61.2610 -156.1890 269° West 425 489 40,000  Level FlightAware ADS-B
Wed 05:20:07 PM 61.2590 -156.3280 268° West 425 489 40,000  Level FlightAware ADS-B
Wed 05:20:57 PM 61.2580 -156.5020 269° West 425 489 40,000  Level FlightAware ADS-B
Wed 05:21:37 PM 61.2570 -156.6410 269° West 425 489 40,000  Level FlightAware ADS-B
Wed 05:22:17 PM 61.2560 -156.7800 269° West 425 489 40,000  Level FlightAware ADS-B
Wed 05:23:10 PM 61.2500 -157.3167 269° West 420 483 40,000  Level Anchorage Center
Wed 05:24:12 PM 61.2500 -157.5667 270° West 420 483 40,000  Level Anchorage Center
Wed 05:25:12 PM 61.2333 -157.8000 262° West 420 483 40,000  Level Anchorage Center
Wed 05:27:10 PM 61.2333 -158.2500 270° West 410 472 40,000  Level Anchorage Center
Wed 05:28:10 PM 61.2333 -158.5333 270° West 420 483 40,000  Level Anchorage Center
Wed 05:29:11 PM 61.2333 -158.7833 270° West 420 483 40,000  Level Anchorage Center
Wed 05:30:11 PM 61.2333 -159.0167 270° West 420 483 40,000  Level Anchorage Center
Wed 05:31:10 PM 61.2333 -159.2667 270° West 420 483 40,000  Level Anchorage Center
Wed 05:32:10 PM 61.2167 -159.5000 262° West 410 472 40,000  Level Anchorage Center
Wed 05:33:11 PM 61.2167 -159.7500 270° West 410 472 40,000  Level Anchorage Center
Wed 05:34:13 PM 61.2167 -159.9833 270° West 410 472 40,000  Level Anchorage Center
Wed 05:35:13 PM 61.2000 -160.2167 262° West 410 472 40,000  Level Anchorage Center
Wed 05:36:13 PM 61.2000 -160.4667 270° West 410 472 40,000  Level Anchorage Center
Wed 05:37:13 PM 61.1833 -160.7000 262° West 410 472 40,000  Level Anchorage Center
Wed 05:38:14 PM 61.1833 -160.9333 270° West 420 483 40,000  Level Anchorage Center
Wed 05:39:14 PM 61.1833 -161.1833 270° West 410 472 40,000  Level Anchorage Center
Wed 05:40:13 PM 61.1667 -161.4167 262° West 420 483 40,000  Level Anchorage Center
Wed 05:41:14 PM 61.1667 -161.6667 270° West 420 483 40,000  Level Anchorage Center
Wed 05:42:14 PM 61.1500 -161.9167 262° West 410 472 40,000  Level Anchorage Center
Wed 05:43:14 PM 61.1500 -162.1500 270° West 420 483 40,000  Level Anchorage Center
Wed 05:44:14 PM 61.1333 -162.3833 262° West 410 472 40,000  Level Anchorage Center
Wed 05:45:14 PM 61.1167 -162.6333 262° West 430 495 40,000  Level Anchorage Center
Wed 05:46:14 PM 61.1167 -162.8833 270° West 420 483 40,000  Level Anchorage Center
Wed 05:47:14 PM 61.1000 -163.1167 262° West 420 483 40,000  Level Anchorage Center
Wed 05:48:15 PM 61.0500 -163.3500 246° West 430 495 40,000  Level Anchorage Center
Wed 05:49:15 PM 61.0167 -163.6000 255° West 430 495 40,000  Level Anchorage Center
Wed 05:50:14 PM 60.9833 -163.8333 254° West 430 495 40,000  Level Anchorage Center
Wed 05:51:15 PM 60.9500 -164.0667 254° West 420 483 40,000  Level Anchorage Center
Wed 05:52:15 PM 60.9167 -164.3000 254° West 420 483 40,000  Level Anchorage Center
Wed 05:53:15 PM 60.8833 -164.5333 254° West 420 483 40,000  Level Anchorage Center
Wed 05:54:15 PM 60.8500 -164.7667 254° West 430 495 40,000  Level Anchorage Center
Wed 05:55:15 PM 60.8167 -165.0000 254° West 420 483 40,000  Level Anchorage Center
Wed 05:56:15 PM 60.7833 -165.2333 254° West 420 483 40,000  Level Anchorage Center
Wed 05:57:12 PM 60.7333 -165.4500 245° Southwest 420 483 40,000  Level Anchorage Center
Wed 05:58:12 PM 60.7167 -165.6500 260° West 420 483 40,000  Level Anchorage Center
Wed 05:59:12 PM 60.6667 -165.8667 245° Southwest 420 483 40,000  Level Anchorage Center
Wed 06:00:12 PM 60.6333 -166.1000 254° West 430 495 40,000  Level Anchorage Center
Wed 06:01:12 PM 60.6000 -166.3333 254° West 420 483 40,000  Level Anchorage Center
Wed 06:02:12 PM 60.5667 -166.5667 254° West 430 495 40,000  Level Anchorage Center
Wed 06:03:12 PM 60.5167 -166.8000 247° West 420 483 40,000  Level Anchorage Center
Wed 06:04:12 PM 60.4833 -167.0333 254° West 430 495 40,000  Level Anchorage Center
Wed 06:05:12 PM 60.4333 -167.2500 245° Southwest 430 495 40,000  Level Anchorage Center
Wed 06:06:13 PM 60.4000 -167.4833 254° West 430 495 40,000  Level Anchorage Center
Wed 06:07:13 PM 60.3500 -167.7167 247° West 440 506 40,000  Level Anchorage Center
Wed 06:08:12 PM 60.3167 -167.9500 254° West 430 495 40,000  Level Anchorage Center
Wed 06:09:13 PM 60.2667 -168.1833 247° West 430 495 40,000  Level Anchorage Center
Wed 06:10:13 PM 60.2333 -168.4000 253° West 430 495 40,000  Level Anchorage Center
Wed 06:11:13 PM 60.1833 -168.6333 247° West 430 495 40,000  Level Anchorage Center
Wed 06:12:13 PM 60.1500 -168.8500 253° West 430 495 40,000  Level Anchorage Center
Wed 06:13:13 PM 60.1000 -169.0833 247° West 420 483 40,000  Level Anchorage Center
Wed 06:14:13 PM 60.0667 -169.3000 253° West 420 483 40,000  Level Anchorage Center
Wed 06:15:13 PM 60.0167 -169.5333 247° West 430 495 40,000  Level Anchorage Center
Wed 06:16:13 PM 59.9667 -169.7667 247° West 440 506 40,000  Level Anchorage Center
Wed 06:17:13 PM 59.9333 -169.9833 253° West 430 495 40,000  Level Anchorage Center
Wed 06:18:13 PM 59.8833 -170.2000 245° Southwest 430 495 40,000  Level Anchorage Center
Wed 06:19:13 PM 59.8333 -170.4500 248° West 420 483 40,000  Level Anchorage Center
Wed 06:20:13 PM 59.7833 -170.6667 245° Southwest 420 483 40,000  Level Anchorage Center
Wed 06:21:13 PM 59.7500 -170.9000 254° West 430 495 40,000  Level Anchorage Center
Wed 06:22:13 PM 59.7000 -171.1167 245° Southwest 440 506 40,000  Level Anchorage Center
Wed 06:23:13 PM 59.6500 -171.3500 247° West 440 506 40,000  Level Anchorage Center
Wed 06:24:14 PM 59.6000 -171.5667 246° West 430 495 40,000  Level Anchorage Center
Wed 06:25:14 PM 59.5500 -171.7833 246° West 430 495 40,000  Level Anchorage Center
Wed 06:26:14 PM 59.5000 -172.0000 246° West 430 495 40,000  Level Anchorage Center
Wed 06:27:14 PM 59.4667 -172.2333 254° West 450 518 40,000  Level Anchorage Center
Wed 06:28:14 PM 59.4167 -172.4667 247° West 440 506 40,000  Level Anchorage Center
Wed 06:29:13 PM 59.3667 -172.6833 246° West 430 495 40,000  Level Anchorage Center
Wed 06:30:14 PM 59.3167 -172.9167 247° West 440 506 40,000  Level Anchorage Center
Wed 06:31:14 PM 59.2667 -173.1333 246° West 450 518 40,000  Level Anchorage Center
Wed 06:32:14 PM 59.2333 -173.3667 254° West 450 518 40,000  Level Anchorage Center
Wed 06:33:14 PM 59.1833 -173.5833 246° West 450 518 40,000  Level Anchorage Center
Wed 06:34:14 PM 59.1333 -173.8167 247° West 440 506 40,000  Level Anchorage Center
Wed 06:35:14 PM 59.0833 -174.0333 246° West 440 506 40,000 200 Level Anchorage Center
Wed 06:36:14 PM 59.0333 -174.2500 246° West 440 506 40,400 500 Climbing Anchorage Center
Wed 06:37:14 PM 58.9833 -174.4667 246° West 440 506 41,000 300 Climbing Anchorage Center
Wed 06:38:14 PM 58.9333 -174.6833 246° West 430 495 41,000  Level Anchorage Center
Wed 06:39:14 PM 58.8833 -174.9167 248° West 440 506 41,000  Level Anchorage Center
Wed 06:40:14 PM 58.8333 -175.1333 246° West 440 506 41,000  Level Anchorage Center
Wed 06:41:14 PM 58.7833 -175.3500 246° West 430 495 41,000  Level Anchorage Center
Wed 06:42:14 PM 58.7333 -175.5667 246° West 440 506 41,000  Level Anchorage Center
Wed 06:43:15 PM 58.6833 -175.7833 246° West 440 506 41,000  Level Anchorage Center
Wed 06:44:15 PM 58.6333 -175.9833 244° Southwest 430 495 41,000  Level Anchorage Center
Wed 06:45:15 PM 58.5833 -176.2000 246° West 430 495 41,000  Level Anchorage Center
Wed 06:46:15 PM 58.5333 -176.4167 246° West 430 495 41,000  Level Anchorage Center
Wed 06:47:15 PM 58.4833 -176.6333 246° West 440 506 41,000  Level Anchorage Center
Wed 06:48:15 PM 58.4333 -176.8333 245° Southwest 440 506 41,000  Level Anchorage Center
Wed 06:49:15 PM 58.3833 -177.0500 246° West 440 506 41,000  Level Anchorage Center
Wed 06:50:15 PM 58.3333 -177.2667 246° West 440 506 41,000  Level Anchorage Center
Wed 06:51:15 PM 58.2833 -177.4667 245° Southwest 420 483 41,000  Level Anchorage Center
Wed 06:53:00 PM 58.1946 -177.8210 245° Southwest  Level FlightAware Approximate
Wed 07:00:00 PM 57.8298 -179.2207 244° Southwest  Level FlightAware Approximate
Wed 07:01:00 PM 57.7765 -179.4183 243° Southwest  Level FlightAware Approximate
Wed 07:02:00 PM 57.7228 -179.6153 243° Southwest  Level FlightAware Approximate
Wed 07:03:00 PM 57.6688 -179.8117 243° Southwest  Level FlightAware Approximate
Wed 07:04:00 PM 57.6145 179.9925 242° Southwest  Level FlightAware Approximate
Wed 07:05:00 PM 57.5592 179.7980 242° Southwest  Level FlightAware Approximate
Wed 07:06:00 PM 57.5036 179.6040 242° Southwest  Level FlightAware Approximate
Wed 07:07:00 PM 57.4477 179.4107 242° Southwest  Level FlightAware Approximate
Wed 07:08:00 PM 57.3914 179.2179 242° Southwest  Level FlightAware Approximate
Wed 07:09:00 PM 57.3349 179.0258 241° Southwest  Level FlightAware Approximate
Wed 07:10:00 PM 57.2781 178.8342 241° Southwest  Level FlightAware Approximate
Wed 07:11:00 PM 57.2210 178.6432 241° Southwest  Level FlightAware Approximate
Wed 07:12:00 PM 57.1637 178.4528 241° Southwest  Level FlightAware Approximate
Wed 07:13:00 PM 57.1060 178.2630 241° Southwest  Level FlightAware Approximate
Wed 07:14:00 PM 57.0480 178.0739 241° Southwest  Level FlightAware Approximate
Wed 07:15:00 PM 56.9898 177.8852 241° Southwest  Level FlightAware Approximate
Wed 07:16:00 PM 56.9313 177.6972 240° Southwest  Level FlightAware Approximate
Wed 07:17:00 PM 56.8725 177.5098 240° Southwest  Level FlightAware Approximate
Wed 07:18:00 PM 56.8134 177.3229 240° Southwest  Level FlightAware Approximate
Wed 07:19:00 PM 56.7542 177.1365 240° Southwest  Level FlightAware Approximate
Wed 07:20:00 PM 56.6947 176.9506 240° Southwest  Level FlightAware Approximate
Wed 07:21:00 PM 56.6350 176.7654 240° Southwest  Level FlightAware Approximate
Wed 07:22:00 PM 56.5750 176.5807 240° Southwest  Level FlightAware Approximate
Wed 07:23:00 PM 56.5147 176.3966 239° Southwest  Level FlightAware Approximate
Wed 07:24:00 PM 56.4541 176.2131 239° Southwest  Level FlightAware Approximate
Wed 07:24:22 PM 56.3333 175.8167 238° Southwest 460 529 41,000  Level Anchorage Center
Wed 07:25:00 PM 56.3933 176.0302 239° Southwest  Level FlightAware Approximate
Wed 07:25:22 PM 56.2667 175.6500 234° Southwest 450 518 41,000  Level Anchorage Center
Wed 07:26:00 PM 56.3322 175.8479 239° Southwest  Level FlightAware Approximate
Wed 07:26:22 PM 56.2000 175.4333 241° Southwest 450 518 41,000  Level Anchorage Center
Wed 07:27:00 PM 56.2708 175.6661 239° Southwest  Level FlightAware Approximate
Wed 07:27:22 PM 56.1333 175.2833 231° Southwest 440 506 41,000  Level Anchorage Center
Wed 07:28:00 PM 56.2092 175.4850 239° Southwest  Level FlightAware Approximate
Wed 07:28:22 PM 56.0667 175.0667 241° Southwest 450 518 41,000  Level Anchorage Center
Wed 07:29:00 PM 56.1473 175.3044 238° Southwest  Level FlightAware Approximate
Wed 07:29:22 PM 56.0167 174.9000 242° Southwest 460 529 41,000  Level Anchorage Center
Wed 07:30:00 PM 56.0851 175.1244 238° Southwest  Level FlightAware Approximate
Wed 07:30:22 PM 55.9333 174.7000 233° Southwest 450 518 41,000  Level Anchorage Center
Wed 07:31:22 PM 55.8667 174.4833 241° Southwest 450 518 41,000  Level Anchorage Center
Wed 07:32:22 PM 55.8000 174.3333 232° Southwest 450 518 41,000  Level Anchorage Center
Wed 07:33:22 PM 55.7333 174.1333 239° Southwest 440 506 41,000  Level Anchorage Center
Wed 07:34:22 PM 55.6667 173.9667 235° Southwest 450 518 41,000  Level Anchorage Center
Wed 07:35:23 PM 55.6000 173.7667 240° Southwest 450 518 41,000  Level Anchorage Center
Wed 07:36:22 PM 55.5333 173.6000 235° Southwest 450 518 41,000  Level Anchorage Center
Wed 07:37:22 PM 55.4667 173.4000 240° Southwest 450 518 41,000  Level Anchorage Center
Wed 07:38:23 PM 55.4000 173.2333 235° Southwest 450 518 41,000  Level Anchorage Center
Wed 07:39:23 PM 55.3333 173.0333 240° Southwest 460 529 41,000  Level Anchorage Center
Wed 07:40:23 PM 55.2500 172.8333 234° Southwest 450 518 41,000  Level Anchorage Center
Wed 07:41:23 PM 55.2000 172.6667 242° Southwest 450 518 41,000  Level Anchorage Center
Wed 07:42:23 PM 55.1167 172.4833 232° Southwest 440 506 41,000  Level Anchorage Center
Wed 07:43:23 PM 55.0500 172.3333 232° Southwest 440 506 41,000  Level Anchorage Center
Wed 07:44:23 PM 54.9833 172.1167 242° Southwest 450 518 41,000  Level Anchorage Center
Wed 07:45:23 PM 54.9167 171.9667 232° Southwest 450 518 41,000  Level Anchorage Center
Wed 07:46:23 PM 54.8333 171.7833 232° Southwest 440 506 41,000  Level Anchorage Center
Wed 07:47:24 PM 54.7667 171.5833 240° Southwest 440 506 41,000  Level Anchorage Center
Wed 07:48:23 PM 54.7000 171.4333 232° Southwest 460 529 41,000  Level Anchorage Center
Wed 07:49:23 PM 54.6167 171.2333 234° Southwest 450 518 41,000  Level Anchorage Center
Wed 07:50:23 PM 54.5500 171.0833 233° Southwest 450 518 41,000  Level Anchorage Center
Wed 07:51:23 PM 54.4667 170.8833 234° Southwest 460 529 41,000  Level Anchorage Center
Wed 07:52:24 PM 54.4000 170.7500 229° Southwest 440 506 41,000  Level Anchorage Center
Wed 07:53:24 PM 54.3333 170.5667 238° Southwest 440 506 41,000  Level Anchorage Center
Wed 07:54:24 PM 54.2500 170.4000 229° Southwest 470 541 41,000  Level Anchorage Center
Wed 07:55:24 PM 54.1833 170.2167 238° Southwest 450 518 41,000  Level Anchorage Center
Wed 07:56:23 PM 54.1000 170.0333 232° Southwest 460 529 41,000  Level Anchorage Center
Wed 07:57:24 PM 54.0333 169.8833 233° Southwest 450 518 41,000  Level Anchorage Center
Wed 07:58:24 PM 53.9500 169.7000 232° Southwest 450 518 41,000  Level Anchorage Center
Wed 07:59:24 PM 53.8833 169.5500 233° Southwest 450 518 41,000  Level Anchorage Center
Wed 08:00:24 PM 53.8000 169.3500 235° Southwest 470 541 41,000  Level Anchorage Center
Wed 08:01:24 PM 53.7333 169.2167 230° Southwest 460 529 41,000  Level Anchorage Center
Wed 08:02:24 PM 53.6667 169.0167 241° Southwest 460 529 41,000  Level Anchorage Center
Wed 08:03:24 PM 53.6000 168.8000 243° Southwest 460 529 41,000  Level Anchorage Center
Wed 08:04:24 PM 53.5333 168.6333 236° Southwest 480 552 41,000  Level Anchorage Center
Wed 08:05:24 PM 53.4667 168.4333 241° Southwest 480 552 41,000  Level Anchorage Center
Wed 08:07:24 PM 53.3500 168.0667 242° Southwest 490 564 41,000  Level Anchorage Center
Wed 08:10:00 PM 53.2555 167.7985 240° Southwest  Level FlightAware Approximate
Wed 08:17:00 PM 52.8304 166.6272 239° Southwest  Level FlightAware Approximate
Wed 08:18:00 PM 52.7687 166.4618 238° Southwest  Level FlightAware Approximate
Wed 08:19:00 PM 52.7068 166.2968 238° Southwest  Level FlightAware Approximate
Wed 08:20:00 PM 52.6447 166.1323 238° Southwest  Level FlightAware Approximate
Wed 08:21:00 PM 52.5823 165.9683 238° Southwest  Level FlightAware Approximate
Wed 08:22:00 PM 52.5198 165.8047 238° Southwest  Level FlightAware Approximate
Wed 08:23:00 PM 52.4570 165.6416 238° Southwest  Level FlightAware Approximate
Wed 08:24:00 PM 52.3940 165.4789 238° Southwest  Level FlightAware Approximate
Wed 08:25:00 PM 52.3307 165.3168 238° Southwest  Level FlightAware Approximate
Wed 08:26:00 PM 52.2673 165.1550 237° Southwest  Level FlightAware Approximate
Wed 08:27:00 PM 52.2036 164.9938 237° Southwest  Level FlightAware Approximate
Wed 08:28:00 PM 52.1397 164.8330 237° Southwest  Level FlightAware Approximate
Wed 08:29:00 PM 52.0756 164.6727 237° Southwest  Level FlightAware Approximate
Wed 08:30:00 PM 52.0112 164.5128 237° Southwest  Level FlightAware Approximate
Wed 08:31:00 PM 51.9467 164.3534 237° Southwest  Level FlightAware Approximate
Wed 08:32:00 PM 51.8819 164.1945 237° Southwest  Level FlightAware Approximate
Wed 08:33:00 PM 51.8169 164.0360 236° Southwest  Level FlightAware Approximate
Wed 08:34:00 PM 51.7517 163.8779 236° Southwest  Level FlightAware Approximate
Wed 08:35:00 PM 51.6863 163.7204 236° Southwest  Level FlightAware Approximate
Wed 08:36:00 PM 51.6207 163.5632 236° Southwest  Level FlightAware Approximate
Wed 08:37:00 PM 51.5550 163.4064 236° Southwest  Level FlightAware Approximate
Wed 08:38:00 PM 51.4891 163.2500 236° Southwest  Level FlightAware Approximate
Wed 08:39:00 PM 51.4230 163.0941 236° Southwest  Level FlightAware Approximate
Wed 08:40:00 PM 51.3567 162.9387 236° Southwest  Level FlightAware Approximate
Wed 08:41:00 PM 51.2902 162.7837 236° Southwest  Level FlightAware Approximate
Wed 08:42:00 PM 51.2235 162.6291 235° Southwest  Level FlightAware Approximate
Wed 08:43:00 PM 51.1565 162.4750 235° Southwest  Level FlightAware Approximate
Wed 08:44:00 PM 51.0894 162.3214 235° Southwest  Level FlightAware Approximate
Wed 08:45:00 PM 51.0221 162.1682 235° Southwest  Level FlightAware Approximate
Wed 08:46:00 PM 50.9545 162.0154 235° Southwest  Level FlightAware Approximate
Wed 08:47:00 PM 50.8868 161.8631 235° Southwest  Level FlightAware Approximate
Wed 08:48:00 PM 50.8189 161.7112 235° Southwest  Level FlightAware Approximate
Wed 08:49:00 PM 50.7508 161.5598 235° Southwest  Level FlightAware Approximate
Wed 08:50:00 PM 50.6824 161.4088 235° Southwest  Level FlightAware Approximate
Wed 08:51:00 PM 50.6139 161.2583 234° Southwest  Level FlightAware Approximate
Wed 08:52:00 PM 50.5452 161.1081 234° Southwest  Level FlightAware Approximate
Wed 08:53:00 PM 50.4763 160.9585 234° Southwest  Level FlightAware Approximate
Wed 08:54:00 PM 50.4072 160.8092 234° Southwest  Level FlightAware Approximate
Wed 08:55:00 PM 50.3379 160.6604 234° Southwest  Level FlightAware Approximate
Wed 08:56:00 PM 50.2685 160.5120 234° Southwest  Level FlightAware Approximate
Wed 08:57:00 PM 50.1988 160.3641 234° Southwest  Level FlightAware Approximate
Wed 08:58:00 PM 50.1295 160.2159 234° Southwest  Level FlightAware Approximate
Wed 08:59:00 PM 50.0600 160.0682 234° Southwest  Level FlightAware Approximate
Wed 09:00:00 PM 49.9904 159.9209 234° Southwest  Level FlightAware Approximate
Wed 09:01:00 PM 49.9205 159.7740 234° Southwest  Level FlightAware Approximate
Wed 09:02:00 PM 49.8507 159.6280 233° Southwest  Level FlightAware Approximate
Wed 09:03:00 PM 49.7806 159.4823 233° Southwest  Level FlightAware Approximate
Wed 09:04:00 PM 49.7063 159.3500 180° South  Level FlightAware Approximate
Wed 09:05:00 PM 49.6396 159.2098 233° Southwest  Level FlightAware Approximate
Wed 09:06:00 PM 49.5689 159.0657 233° Southwest  Level FlightAware Approximate
Wed 09:07:00 PM 49.4979 158.9220 233° Southwest  Level FlightAware Approximate
Wed 09:08:00 PM 49.4267 158.7787 233° Southwest  Level FlightAware Approximate
Wed 09:09:00 PM 49.3554 158.6358 233° Southwest  Level FlightAware Approximate
Wed 09:10:00 PM 49.2839 158.4934 232° Southwest  Level FlightAware Approximate
Wed 09:11:00 PM 49.2122 158.3513 232° Southwest  Level FlightAware Approximate
Wed 09:12:00 PM 49.1404 158.2097 232° Southwest  Level FlightAware Approximate
Wed 09:13:00 PM 49.0684 158.0684 232° Southwest  Level FlightAware Approximate
Wed 09:14:00 PM 48.9962 157.9276 232° Southwest  Level FlightAware Approximate
Wed 09:15:00 PM 48.9238 157.7872 232° Southwest  Level FlightAware Approximate
Wed 09:16:00 PM 48.8513 157.6472 232° Southwest  Level FlightAware Approximate
Wed 09:17:00 PM 48.7786 157.5076 232° Southwest  Level FlightAware Approximate
Wed 09:18:00 PM 48.7057 157.3684 232° Southwest  Level FlightAware Approximate
Wed 09:19:00 PM 48.6327 157.2296 232° Southwest  Level FlightAware Approximate
Wed 09:20:00 PM 48.5595 157.0912 231° Southwest  Level FlightAware Approximate
Wed 09:21:00 PM 48.4861 156.9532 231° Southwest  Level FlightAware Approximate
Wed 09:22:00 PM 48.4126 156.8157 231° Southwest  Level FlightAware Approximate
Wed 09:23:00 PM 48.3389 156.6785 231° Southwest  Level FlightAware Approximate
Wed 09:24:00 PM 48.2650 156.5417 231° Southwest  Level FlightAware Approximate
Wed 09:25:00 PM 48.1910 156.4053 231° Southwest  Level FlightAware Approximate
Wed 09:26:00 PM 48.1168 156.2693 231° Southwest  Level FlightAware Approximate
Wed 09:27:00 PM 48.0425 156.1337 231° Southwest  Level FlightAware Approximate
Wed 09:28:00 PM 47.9680 155.9984 231° Southwest  Level FlightAware Approximate
Wed 09:29:00 PM 47.8933 155.8636 230° Southwest  Level FlightAware Approximate
Wed 09:30:00 PM 47.8185 155.7292 230° Southwest  Level FlightAware Approximate
Wed 09:31:00 PM 47.7435 155.5951 230° Southwest  Level FlightAware Approximate
Wed 09:32:00 PM 47.6684 155.4615 230° Southwest  Level FlightAware Approximate
Wed 09:33:00 PM 47.5931 155.3282 230° Southwest  Level FlightAware Approximate
Wed 09:34:00 PM 47.5177 155.1953 230° Southwest  Level FlightAware Approximate
Wed 09:35:00 PM 47.4421 155.0627 230° Southwest  Level FlightAware Approximate
Wed 09:36:00 PM 47.3664 154.9306 230° Southwest  Level FlightAware Approximate
Wed 09:37:00 PM 47.2905 154.7988 230° Southwest  Level FlightAware Approximate
Wed 09:38:00 PM 47.2144 154.6675 230° Southwest  Level FlightAware Approximate
Wed 09:39:00 PM 47.1382 154.5365 229° Southwest  Level FlightAware Approximate
Wed 09:40:00 PM 47.0619 154.4058 229° Southwest  Level FlightAware Approximate
Wed 09:41:00 PM 46.9854 154.2756 229° Southwest  Level FlightAware Approximate
Wed 09:42:00 PM 46.9088 154.1457 229° Southwest  Level FlightAware Approximate
Wed 09:43:00 PM 46.8320 154.0162 229° Southwest  Level FlightAware Approximate
Wed 09:44:00 PM 46.7551 153.8871 229° Southwest  Level FlightAware Approximate
Wed 09:45:00 PM 46.6780 153.7583 229° Southwest  Level FlightAware Approximate
Wed 09:46:00 PM 46.6008 153.6299 229° Southwest  Level FlightAware Approximate
Wed 09:47:00 PM 46.5234 153.5018 229° Southwest  Level FlightAware Approximate
Wed 09:48:00 PM 46.4459 153.3742 229° Southwest  Level FlightAware Approximate
Wed 09:49:00 PM 46.3683 153.2469 229° Southwest  Level FlightAware Approximate
Wed 09:50:00 PM 46.2905 153.1199 228° Southwest  Level FlightAware Approximate
Wed 09:51:00 PM 46.2125 152.9934 228° Southwest  Level FlightAware Approximate
Wed 09:52:00 PM 46.1339 152.8679 228° Southwest  Level FlightAware Approximate
Wed 09:53:00 PM 46.0551 152.7428 228° Southwest  Level FlightAware Approximate
Wed 09:54:00 PM 45.9761 152.6180 228° Southwest  Level FlightAware Approximate
Wed 09:55:00 PM 45.8971 152.4937 228° Southwest  Level FlightAware Approximate
Wed 09:56:00 PM 45.8179 152.3696 228° Southwest  Level FlightAware Approximate
Wed 09:57:00 PM 45.7385 152.2459 227° Southwest  Level FlightAware Approximate
Wed 09:58:00 PM 45.6591 152.1226 227° Southwest  Level FlightAware Approximate
Wed 09:59:00 PM 45.5795 151.9996 227° Southwest  Level FlightAware Approximate
Wed 10:00:00 PM 45.4997 151.8770 227° Southwest  Level FlightAware Approximate
Wed 10:01:00 PM 45.4199 151.7547 227° Southwest  Level FlightAware Approximate
Wed 10:02:00 PM 45.3399 151.6327 227° Southwest  Level FlightAware Approximate
Wed 10:03:00 PM 45.2598 151.5111 227° Southwest  Level FlightAware Approximate
Wed 10:04:00 PM 45.1795 151.3899 227° Southwest  Level FlightAware Approximate
Wed 10:05:00 PM 45.0991 151.2690 227° Southwest  Level FlightAware Approximate
Wed 10:06:00 PM 45.0186 151.1484 227° Southwest  Level FlightAware Approximate
Wed 10:07:00 PM 44.9380 151.0282 227° Southwest  Level FlightAware Approximate
Wed 10:08:00 PM 44.8572 150.9082 226° Southwest  Level FlightAware Approximate
Wed 10:09:00 PM 44.7763 150.7887 226° Southwest  Level FlightAware Approximate
Wed 10:10:00 PM 44.6953 150.6695 226° Southwest  Level FlightAware Approximate
Wed 10:11:00 PM 44.6142 150.5506 226° Southwest  Level FlightAware Approximate
Wed 10:12:00 PM 44.5330 150.4320 226° Southwest  Level FlightAware Approximate
Wed 10:13:00 PM 44.4516 150.3138 226° Southwest  Level FlightAware Approximate
Wed 10:14:00 PM 44.3701 150.1959 226° Southwest  Level FlightAware Approximate
Wed 10:15:00 PM 44.2885 150.0783 226° Southwest  Level FlightAware Approximate
Wed 10:16:00 PM 44.2067 149.9611 226° Southwest  Level FlightAware Approximate
Wed 10:17:00 PM 44.1249 149.8441 226° Southwest  Level FlightAware Approximate
Wed 10:18:00 PM 44.0429 149.7275 226° Southwest  Level FlightAware Approximate
Wed 10:19:00 PM 43.9608 149.6113 226° Southwest  Level FlightAware Approximate
Wed 10:20:00 PM 43.8786 149.4953 225° Southwest  Level FlightAware Approximate
Wed 10:21:00 PM 43.7962 149.3797 225° Southwest  Level FlightAware Approximate
Wed 10:22:00 PM 43.7138 149.2643 225° Southwest  Level FlightAware Approximate
Wed 10:23:00 PM 43.6312 149.1493 225° Southwest  Level FlightAware Approximate
Wed 10:24:00 PM 43.5486 149.0347 225° Southwest  Level FlightAware Approximate
Wed 10:24:37 PM 43.4130 148.8480 225° Southwest 396 456 41,000  Level FlightAware ADS-B
Wed 10:25:00 PM 43.4658 148.9203 225° Southwest  Level FlightAware Approximate
Wed 10:25:17 PM 43.3630 148.7790 225° Southwest 398 458 41,000  Level FlightAware ADS-B
Wed 10:26:02 PM 43.3010 148.6940 225° Southwest 405 466 41,000  Level FlightAware ADS-B
Wed 10:26:37 PM 43.2530 148.6290 225° Southwest 406 467 41,000  Level FlightAware ADS-B
Wed 10:27:22 PM 43.1950 148.5500 225° Southwest 406 467 41,000  Level FlightAware ADS-B
Wed 10:28:02 PM 43.1420 148.4770 225° Southwest 406 467 41,000  Level FlightAware ADS-B
Wed 10:28:52 PM 43.0760 148.3880 225° Southwest 405 466 41,000  Level FlightAware ADS-B
Wed 10:29:32 PM 43.0190 148.3110 225° Southwest 405 466 41,000  Level FlightAware ADS-B
Wed 10:30:12 PM 42.9700 148.2440 225° Southwest 396 456 41,000  Level FlightAware ADS-B
Wed 10:30:57 PM 42.9070 148.1600 224° Southwest 395 455 41,000  Level FlightAware ADS-B
Wed 10:31:32 PM 42.8620 148.0990 225° Southwest 394 453 41,000  Level FlightAware ADS-B
Wed 10:32:22 PM 42.8010 148.0180 224° Southwest 393 452 41,000  Level FlightAware ADS-B
Wed 10:32:57 PM 42.7510 147.9520 224° Southwest 391 450 41,000  Level FlightAware ADS-B
Wed 10:33:42 PM 42.6960 147.8780 225° Southwest 391 450 41,000  Level FlightAware ADS-B
Wed 10:34:27 PM 42.6320 147.7930 224° Southwest 390 449 41,000  Level FlightAware ADS-B
Wed 10:35:37 PM 42.5440 147.6770 224° Southwest 391 450 41,000  Level FlightAware ADS-B
Wed 10:36:17 PM 42.4890 147.6050 224° Southwest 392 451 41,000  Level FlightAware ADS-B
Wed 10:36:57 PM 42.4390 147.5380 225° Southwest 400 460 41,000  Level FlightAware ADS-B
Wed 10:37:47 PM 42.3710 147.4490 224° Southwest 402 463 41,000  Level FlightAware ADS-B
Wed 10:38:17 PM 42.3260 147.3900 224° Southwest 403 464 41,000  Level FlightAware ADS-B
Wed 10:39:22 PM 42.2420 147.2810 224° Southwest 403 464 41,000  Level FlightAware ADS-B
Wed 10:40:07 PM 42.1820 147.2030 224° Southwest 401 461 41,000  Level FlightAware ADS-B
Wed 10:40:47 PM 42.1280 147.1320 224° Southwest 400 460 41,000  Level FlightAware ADS-B
Wed 10:41:42 PM 42.0570 147.0410 224° Southwest 398 458 41,000  Level FlightAware ADS-B
Wed 10:42:22 PM 42.0060 146.9740 224° Southwest 398 458 41,000  Level FlightAware ADS-B
Wed 10:43:07 PM 41.9470 146.8970 224° Southwest 387 445 41,000  Level FlightAware ADS-B
Wed 10:43:22 PM 41.9340 146.8620 243° Southwest 387 445 41,000  Level FlightAware ADS-B
Wed 10:44:17 PM 41.9450 146.7380 277° West 391 450 41,000  Level FlightAware ADS-B
Wed 10:44:52 PM 41.9670 146.6490 288° West 389 448 41,000  Level FlightAware ADS-B
Wed 10:45:37 PM 41.9920 146.5460 288° West 388 447 41,000  Level FlightAware ADS-B
Wed 10:46:22 PM 42.0160 146.4440 288° West 388 447 41,000  Level FlightAware ADS-B
Wed 10:47:02 PM 42.0380 146.3520 288° West 390 449 41,000  Level FlightAware ADS-B
Wed 10:47:47 PM 42.0640 146.2460 288° West 388 447 41,000  Level FlightAware ADS-B
Wed 10:48:27 PM 42.0860 146.1510 287° West 388 447 41,000  Level FlightAware ADS-B
Wed 10:49:12 PM 42.1110 146.0450 288° West 385 443 41,000  Level FlightAware ADS-B
Wed 10:49:52 PM 42.1320 145.9560 288° West 383 441 41,000  Level FlightAware ADS-B
Wed 10:50:32 PM 42.1530 145.8660 287° West 381 438 41,000  Level FlightAware ADS-B
Wed 10:51:32 PM 42.1830 145.7380 288° West 380 437 41,000  Level FlightAware ADS-B
Wed 10:52:12 PM 42.2050 145.6430 287° West 379 436 41,000  Level FlightAware ADS-B
Wed 10:52:52 PM 42.2260 145.5520 287° West 378 435 41,000  Level FlightAware ADS-B
Wed 10:53:32 PM 42.2460 145.4630 287° West 377 434 41,000  Level FlightAware ADS-B
Wed 10:55:42 PM 42.3130 145.1710 287° West 375 432 41,000  Level FlightAware ADS-B
Wed 10:56:22 PM 42.3330 145.0800 287° West 377 434 41,000  Level FlightAware ADS-B
Wed 10:56:57 PM 42.3520 144.9980 287° West 376 433 41,000  Level FlightAware ADS-B
Wed 10:58:02 PM 42.3660 144.8560 278° West 374 430 41,000  Level FlightAware ADS-B
Wed 10:58:42 PM 42.3730 144.7610 276° West 374 430 41,000 -71 Level FlightAware ADS-B
Wed 10:59:27 PM 42.3810 144.6560 276° West 373 429 40,900 -565 Descending FlightAware ADS-B
Wed 11:00:07 PM 42.3880 144.5610 276° West 365 420 40,200 -1,011 Descending FlightAware ADS-B
Wed 11:01:02 PM 42.3970 144.4360 276° West 365 420 39,300 -900 Descending FlightAware ADS-B
Wed 11:01:47 PM 42.4050 144.3370 276° West 358 412 38,700 -918 Descending FlightAware ADS-B
Wed 11:02:27 PM 42.4120 144.2460 276° West 348 400 38,000 -1,000 Descending FlightAware ADS-B
Wed 11:03:17 PM 42.4190 144.1490 276° West 337 388 37,200 -1,267 Descending FlightAware ADS-B
Wed 11:03:57 PM 42.4250 144.0580 275° West 315 362 36,100 -2,333 Descending FlightAware ADS-B
Wed 11:04:47 PM 42.4320 143.9670 276° West 318 366 33,700 -2,600 Descending FlightAware ADS-B
Wed 11:05:27 PM 42.4370 143.8830 275° West 317 365 32,200 -2,118 Descending FlightAware ADS-B
Wed 11:06:12 PM 42.4440 143.7930 276° West 309 356 30,700 -1,835 Descending FlightAware ADS-B
Wed 11:06:52 PM 42.4490 143.7230 276° West 302 348 29,600 -1,705 Descending FlightAware ADS-B
Wed 11:07:47 PM 42.4560 143.6180 275° West 290 334 28,000 -1,680 Descending FlightAware ADS-B
Wed 11:08:32 PM 42.4610 143.5410 275° West 284 327 26,800 -1,667 Descending FlightAware ADS-B
Wed 11:09:17 PM 42.4660 143.4650 275° West 279 321 25,500 -1,835 Descending FlightAware ADS-B
Wed 11:09:57 PM 42.4710 143.3920 275° West 276 318 24,200 -2,325 Descending FlightAware ADS-B
Wed 11:10:37 PM 42.4750 143.3230 275° West 284 327 22,400 -2,400 Descending FlightAware ADS-B
Wed 11:11:37 PM 42.4820 143.2170 275° West 284 327 20,200 -1,860 Descending FlightAware ADS-B
Wed 11:12:17 PM 42.4870 143.1430 275° West 283 326 19,300 -1,074 Descending FlightAware ADS-B
Wed 11:13:12 PM 42.4920 143.0520 274° West 276 318 18,500 -927 Descending FlightAware ADS-B
Wed 11:14:07 PM 42.4980 142.9550 275° West 270 311 17,600 -1,080 Descending FlightAware ADS-B
Wed 11:14:52 PM 42.5030 142.8750 275° West 265 305 16,700 -1,425 Descending FlightAware ADS-B
Wed 11:15:27 PM 42.5060 142.8200 274° West 263 303 15,700 -1,694 Descending FlightAware ADS-B
Wed 11:16:17 PM 42.5110 142.7420 275° West 263 303 14,300 -1,733 Descending FlightAware ADS-B
Wed 11:16:57 PM 42.5160 142.6740 276° West 261 300 13,100 -1,050 Descending FlightAware ADS-B
Wed 11:17:37 PM 42.5210 142.6150 277° West 229 264 12,900 -706 Descending FlightAware ADS-B
Wed 11:18:22 PM 42.5280 142.5520 279° West 217 250 12,100 -1,129 Descending FlightAware ADS-B
Wed 11:19:02 PM 42.5330 142.4990 277° West 212 244 11,300 -1,412 Descending FlightAware ADS-B
Wed 11:19:47 PM 42.5380 142.4380 276° West 220 253 10,100 -1,886 Descending FlightAware ADS-B
Wed 11:20:12 PM 42.5400 142.4020 274° West 238 274 9,100 -1,855 Descending FlightAware ADS-B
Wed 11:20:42 PM 42.5410 142.3580 272° West 243 280 8,400 -1,091 Descending FlightAware ADS-B
Wed 11:21:07 PM 42.5330 142.3200 254° West 232 267 8,100 -327 Descending FlightAware ADS-B
Wed 11:21:37 PM 42.5230 142.2790 252° West 231 266 8,100  Level FlightAware ADS-B
Wed 11:22:02 PM 42.5140 142.2450 250° West 231 266 8,100 -218 Level FlightAware ADS-B
Wed 11:22:32 PM 42.5040 142.2030 252° West 231 266 7,900 -1,000 Descending FlightAware ADS-B
Wed 11:23:02 PM 42.4940 142.1600 253° West 236 272 7,100 -1,371 Descending FlightAware ADS-B
Wed 11:23:42 PM 42.4950 142.1020 271° West 241 277 6,300 -1,286 Descending FlightAware ADS-B
Wed 11:24:12 PM 42.5020 142.0570 282° West 240 276 5,600 -1,309 Descending FlightAware ADS-B
Wed 11:24:37 PM 42.5080 142.0200 282° West 239 275 5,100 -1,350 Descending FlightAware ADS-B
Wed 11:24:52 PM 42.5110 141.9980 280° West 238 274 4,700 -1,333 Descending FlightAware ADS-B
Wed 11:25:22 PM 42.5170 141.9540 280° West 235 270 4,100 -1,200 Descending FlightAware ADS-B
Wed 11:25:37 PM 42.5210 141.9300 283° West 233 268 3,800 -1,200 Descending FlightAware ADS-B
Wed 11:26:02 PM 42.5260 141.8940 281° West 233 268 3,300 -1,200 Descending FlightAware ADS-B
Wed 11:26:32 PM 42.5330 141.8500 282° West 234 269 2,700 -1,200 Descending FlightAware ADS-B
Wed 11:26:52 PM 42.5410 141.8230 292° West 234 269 2,300 -655 Descending FlightAware ADS-B
Wed 11:27:27 PM 42.5540 141.7760 291° West 231 266 2,100 -200 Descending FlightAware ADS-B
Wed 11:27:52 PM 42.5660 141.7440 297° West 226 260 2,100  Level FlightAware ADS-B
Wed 11:28:07 PM 42.5790 141.7330 328° Northwest 213 245 2,100  Level FlightAware ADS-B
Wed 11:29:27 PM 42.6440 141.7170 350° North 149 171 2,100 -194 Level FlightAware ADS-B
Wed 11:30:42 PM 42.6910 141.7090 353° North 135 155 1,600 -538 Descending FlightAware ADS-B
Wed 11:31:52 PM 42.7360 141.7010 353° North 117 135 800 -686 Descending FlightAware ADS-B

Login

Don't have an account? Register now (free) for customized features, flight alerts, and more!